Airport ICAO


11:54 UTC

25°C

Clear skies


An affordable passengers' Moving Map for your aircraft. Made for the iPad and the iPhone
More information here

LFPO Orly


Paris FRANCE   VFR CAVOK


METAR LFPO 191130Z 20010KT CAVOK 25/11 Q1025 NOSIG 0h24min

TAF LFPO 191100Z 1912/2018 18008KT CAVOK BECMG 1919/1921 VRB03KT BECMG 2013/2015 03005KT 0h54min





NOTAMS

OPEN